Terminal Aerodrome Forecast
Issued by NWS Topeka, KS

Home | Current Version | Previous Version | Text Only | Print | Product List | Glossary Off
Versions: 1 2 3 4 5 6 7 8 9 10 11 12 13 14 15 16

771
FTUS43 KTOP 111609 AAA
TAFTOP
TAF AMD
KTOP 111609Z 1116/1212 28009KT P6SM BKN150 WS010/31040KT
     FM111700 32021G31KT P6SM SCT150 SCT250
     FM112200 32019G28KT P6SM BKN035
     FM120300 34015G21KT P6SM SCT040
     FM120700 32011KT P6SM SKC=

USA.gov is the U.S. government's official web portal to all federal, state and local government web resources and services.